Time;durP1;ratioP1;P1;durP2;ratioP2;P2;SDS_P1;SDS_P2;PMS_P1;PMS_P2;Temp;Humidity;BMP_temperature;BMP_pressure;BME280_temperature;BME280_humidity;BME280_pressure;Samples;Min_cycle;Max_cycle;Signal;HPM_P1;HPM_P2
2021/12/31 00:00:49;;;;;;;27.48;3.83;;;11.80;99.90;;;;;;5084422;27;20131;-88
2021/12/31 00:03:16;;;;;;;19.13;3.72;;;11.60;99.90;;;;;;5091409;27;20043;-94
2021/12/31 00:05:43;;;;;;;16.58;3.10;;;11.60;99.90;;;;;;5106335;27;20495;-87
2021/12/31 00:08:09;;;;;;;26.52;4.18;;;12.10;99.90;;;;;;5096112;28;20127;-92
2021/12/31 00:10:34;;;;;;;13.80;2.63;;;12.10;99.90;;;;;;5085637;27;20122;-89
2021/12/31 00:13:01;;;;;;;24.35;3.70;;;11.60;99.90;;;;;;5097864;27;20047;-92
2021/12/31 00:15:26;;;;;;;22.25;3.38;;;11.60;99.90;;;;;;5101183;27;20096;-88
2021/12/31 00:17:52;;;;;;;23.48;3.13;;;11.60;99.90;;;;;;5083637;27;20039;-90
2021/12/31 00:20:22;;;;;;;23.23;3.50;;;12.20;99.90;;;;;;5101099;27;20088;-88
2021/12/31 00:25:26;;;;;;;24.40;3.60;;;11.60;99.90;;;;;;5108803;28;20105;-94
2021/12/31 00:27:52;;;;;;;24.85;3.85;;;11.50;99.90;;;;;;5089016;28;20039;-90
2021/12/31 00:30:18;;;;;;;22.33;3.58;;;11.50;99.90;;;;;;5102187;27;20037;-90
2021/12/31 00:32:45;;;;;;;18.75;3.50;;;11.50;99.90;;;;;;5095748;28;20035;-87
2021/12/31 00:35:11;;;;;;;29.90;4.72;;;11.50;99.90;;;;;;5133543;27;20031;-91
2021/12/31 00:37:38;;;;;;;27.88;3.58;;;11.50;99.90;;;;;;5117234;27;20022;-88
2021/12/31 00:40:09;;;;;;;22.58;3.72;;;11.40;99.90;;;;;;5136719;27;20034;-90
2021/12/31 00:42:36;;;;;;;21.85;4.50;;;11.50;99.90;;;;;;5114803;28;20415;-90
2021/12/31 00:45:03;;;;;;;26.38;4.53;;;11.50;99.90;;;;;;5117080;28;20039;-93
2021/12/31 00:47:32;;;;;;;25.38;4.10;;;12.10;99.90;;;;;;5088142;28;20047;-89
2021/12/31 00:49:58;;;;;;;22.38;4.00;;;11.90;99.90;;;;;;5093990;28;20491;-90
2021/12/31 00:52:23;;;;;;;19.88;3.90;;;12.00;99.90;;;;;;5089953;27;20042;-92
2021/12/31 00:54:49;;;;;;;24.15;3.67;;;11.50;99.90;;;;;;5100983;28;20055;-86
2021/12/31 00:57:15;;;;;;;23.38;4.43;;;11.40;99.90;;;;;;5111455;28;20350;-92
2021/12/31 00:59:41;;;;;;;22.67;3.72;;;11.50;99.90;;;;;;5081579;28;20062;-92
2021/12/31 01:02:07;;;;;;;24.73;4.32;;;11.60;99.90;;;;;;5094573;28;20553;-85
2021/12/31 01:04:33;;;;;;;20.52;3.45;;;11.40;99.90;;;;;;5095250;28;20095;-91
2021/12/31 01:07:01;;;;;;;25.27;3.80;;;11.50;99.90;;;;;;5096202;27;20047;-89
2021/12/31 01:09:28;;;;;;;20.55;3.58;;;11.70;99.90;;;;;;5078040;28;20184;-90
2021/12/31 01:11:56;;;;;;;18.83;2.90;;;11.50;99.90;;;;;;5111082;28;20527;-89
2021/12/31 01:15:34;;;;;;;27.25;3.28;;;11.50;99.90;;;;;;5086503;28;20047;-89
2021/12/31 01:17:23;;;;;;;24.52;4.22;;;11.50;99.90;;;;;;5076218;28;20044;-90
2021/12/31 01:19:49;;;;;;;24.05;3.63;;;12.20;99.90;;;;;;5091781;28;20054;-90
2021/12/31 01:22:17;;;;;;;22.65;3.90;;;11.50;99.90;;;;;;5097463;28;20035;-90
2021/12/31 01:24:43;;;;;;;18.60;3.38;;;11.50;99.90;;;;;;5077120;28;20168;-90
2021/12/31 01:27:10;;;;;;;21.27;3.10;;;11.50;99.90;;;;;;5106683;28;20059;-88
2021/12/31 01:29:36;;;;;;;16.88;3.40;;;11.90;99.90;;;;;;5106560;28;20126;-95
2021/12/31 01:32:02;;;;;;;24.98;3.63;;;12.10;99.90;;;;;;5110606;28;20075;-90
2021/12/31 01:34:28;;;;;;;21.98;4.07;;;11.60;99.90;;;;;;5076888;28;20043;-91
2021/12/31 01:36:54;;;;;;;23.98;3.97;;;11.60;99.90;;;;;;5090625;28;20047;-89
2021/12/31 01:39:19;;;;;;;25.80;4.38;;;11.60;99.90;;;;;;5096912;27;20051;-92
2021/12/31 01:41:45;;;;;;;23.30;3.40;;;11.60;99.90;;;;;;5102736;27;20138;-90
2021/12/31 01:44:11;;;;;;;17.92;3.75;;;11.70;99.90;;;;;;5098159;27;20035;-90
2021/12/31 01:46:51;;;;;;;19.50;3.40;;;11.70;99.90;;;;;;5107401;27;20046;-91
2021/12/31 01:49:22;;;;;;;24.58;3.20;;;11.70;99.90;;;;;;5098720;27;20035;-90
2021/12/31 01:51:48;;;;;;;23.23;3.75;;;11.80;99.90;;;;;;5095698;27;20054;-90
2021/12/31 01:54:13;;;;;;;24.98;3.60;;;11.80;99.90;;;;;;5096631;27;20055;-90
2021/12/31 01:56:39;;;;;;;23.38;3.85;;;11.80;99.90;;;;;;5096219;27;20047;-91
2021/12/31 01:59:07;;;;;;;18.67;3.38;;;11.80;99.90;;;;;;5098614;27;20035;-87
2021/12/31 02:01:35;;;;;;;17.23;3.38;;;11.80;99.90;;;;;;5102262;27;20040;-91
2021/12/31 02:04:00;;;;;;;27.42;4.18;;;11.90;99.90;;;;;;5095962;27;20058;-90
2021/12/31 02:06:26;;;;;;;18.20;3.03;;;11.80;99.90;;;;;;5103803;27;20100;-90
2021/12/31 02:08:52;;;;;;;18.48;3.53;;;11.90;99.90;;;;;;5093875;27;20429;-90
2021/12/31 02:11:20;;;;;;;20.42;4.35;;;11.90;99.90;;;;;;5087283;27;20062;-90
2021/12/31 02:13:47;;;;;;;18.42;3.38;;;12.20;99.90;;;;;;5100441;27;20058;-89
2021/12/31 02:16:12;;;;;;;22.27;3.72;;;11.80;99.90;;;;;;5097307;27;20399;-92
2021/12/31 02:18:42;;;;;;;22.83;3.75;;;11.80;99.90;;;;;;5089620;27;20043;-91
2021/12/31 02:21:12;;;;;;;23.85;3.97;;;11.80;99.90;;;;;;5095195;27;20285;-90
2021/12/31 02:23:47;;;;;;;21.75;3.65;;;11.80;99.90;;;;;;5098818;27;20031;-93
2021/12/31 02:26:13;;;;;;;17.17;3.08;;;11.80;99.90;;;;;;5102076;27;20113;-92
2021/12/31 02:28:39;;;;;;;19.83;4.15;;;12.50;99.90;;;;;;5081399;27;20511;-91
2021/12/31 02:31:06;;;;;;;21.25;3.53;;;11.80;99.90;;;;;;5106761;27;20610;-88
2021/12/31 02:33:33;;;;;;;20.05;3.35;;;11.80;99.90;;;;;;5107075;27;20074;-89
2021/12/31 02:36:01;;;;;;;14.02;3.40;;;12.30;99.90;;;;;;5114645;27;20122;-89
2021/12/31 02:38:27;;;;;;;20.77;4.07;;;12.40;99.90;;;;;;5086904;27;20157;-89
2021/12/31 02:40:53;;;;;;;18.90;2.90;;;11.70;99.90;;;;;;5082671;27;20035;-87
2021/12/31 02:43:18;;;;;;;14.48;3.20;;;11.70;99.90;;;;;;5091962;27;20045;-90
2021/12/31 02:45:44;;;;;;;19.73;3.17;;;11.80;99.90;;;;;;5092651;27;20495;-90
2021/12/31 02:48:11;;;;;;;28.98;4.25;;;11.80;99.90;;;;;;5104210;27;20042;-90
2021/12/31 02:50:42;;;;;;;18.58;2.72;;;11.90;99.90;;;;;;5108331;27;20050;-95
2021/12/31 02:53:14;;;;;;;22.35;3.53;;;11.80;99.90;;;;;;5096036;27;20073;-88
2021/12/31 02:55:42;;;;;;;15.40;3.13;;;11.80;99.90;;;;;;5093743;27;20051;-91
2021/12/31 02:58:09;;;;;;;13.25;2.72;;;11.80;99.90;;;;;;5103842;27;20129;-88
2021/12/31 03:00:40;;;;;;;11.55;3.03;;;12.30;99.90;;;;;;5081927;27;20055;-89
2021/12/31 03:03:07;;;;;;;15.55;3.33;;;11.80;99.90;;;;;;5096137;27;20043;-89
2021/12/31 03:05:35;;;;;;;16.20;3.08;;;12.20;99.90;;;;;;5084486;27;20039;-91
2021/12/31 03:08:10;;;;;;;16.75;3.17;;;12.20;99.90;;;;;;5086344;27;20094;-96
2021/12/31 03:10:36;;;;;;;18.73;2.88;;;12.00;99.90;;;;;;5111354;27;20035;-92
2021/12/31 03:13:02;;;;;;;19.08;3.55;;;11.90;99.90;;;;;;5091477;27;20736;-95
2021/12/31 03:15:29;;;;;;;20.02;3.42;;;11.90;99.90;;;;;;5097185;27;20532;-93
2021/12/31 03:17:59;;;;;;;16.75;3.08;;;11.90;99.90;;;;;;5096300;27;20050;-92
2021/12/31 03:20:36;;;;;;;19.10;3.33;;;12.00;99.90;;;;;;5103061;27;20160;-89
2021/12/31 03:23:03;;;;;;;12.65;3.47;;;11.90;99.90;;;;;;5102480;27;20508;-90
2021/12/31 03:25:28;;;;;;;12.65;3.25;;;11.90;99.90;;;;;;5083501;27;21452;-88
2021/12/31 03:27:54;;;;;;;17.60;3.55;;;12.00;99.90;;;;;;5084799;27;20122;-90
2021/12/31 03:30:20;;;;;;;17.35;3.47;;;12.00;99.90;;;;;;5104134;27;20120;-88
2021/12/31 03:32:45;;;;;;;21.98;3.28;;;12.00;99.90;;;;;;5115171;27;20039;-89
2021/12/31 03:35:11;;;;;;;14.20;2.65;;;12.40;99.90;;;;;;5091681;27;20135;-89
2021/12/31 03:37:37;;;;;;;12.48;2.88;;;12.60;99.90;;;;;;5110311;27;20377;-89
2021/12/31 03:40:06;;;;;;;14.65;3.30;;;12.00;99.90;;;;;;5085377;27;20058;-91
2021/12/31 03:42:32;;;;;;;12.60;2.70;;;12.00;99.90;;;;;;5085302;27;20038;-87
2021/12/31 03:44:58;;;;;;;18.75;3.45;;;12.00;99.90;;;;;;5094662;27;20038;-91
2021/12/31 03:47:24;;;;;;;16.25;3.30;;;12.30;99.90;;;;;;5083992;27;20486;-89
2021/12/31 03:49:49;;;;;;;14.88;3.13;;;12.00;99.90;;;;;;5084075;27;20083;-92
2021/12/31 03:52:15;;;;;;;11.85;2.85;;;12.00;99.90;;;;;;5098867;27;20055;-87
2021/12/31 03:54:41;;;;;;;17.75;2.83;;;12.00;99.90;;;;;;5094806;27;20509;-88
2021/12/31 03:57:07;;;;;;;11.65;2.60;;;12.40;99.90;;;;;;5108543;27;20045;-88
2021/12/31 03:59:33;;;;;;;17.15;3.10;;;12.20;99.90;;;;;;5111614;27;20043;-89
2021/12/31 04:01:58;;;;;;;12.93;3.22;;;12.10;99.90;;;;;;5123263;27;20051;-89
2021/12/31 04:04:24;;;;;;;13.65;2.95;;;12.00;99.90;;;;;;5092966;27;20845;-88
2021/12/31 04:06:50;;;;;;;13.15;2.75;;;12.00;99.90;;;;;;5090770;27;20043;-89
2021/12/31 04:09:16;;;;;;;10.45;2.60;;;12.10;99.90;;;;;;5094734;27;20491;-90
2021/12/31 04:11:41;;;;;;;8.95;2.38;;;12.00;99.90;;;;;;5096741;27;20733;-89
2021/12/31 04:14:11;;;;;;;17.02;2.90;;;12.00;99.90;;;;;;5092076;27;20046;-88
2021/12/31 04:16:37;;;;;;;15.00;2.80;;;12.00;99.90;;;;;;5092514;27;20090;-88
2021/12/31 04:19:03;;;;;;;13.52;3.20;;;12.00;99.90;;;;;;5111046;27;20129;-88
2021/12/31 04:21:30;;;;;;;17.05;3.10;;;12.00;99.90;;;;;;5084793;27;20055;-87
2021/12/31 04:24:08;;;;;;;13.20;2.22;;;12.00;99.90;;;;;;5111116;27;20042;-88
2021/12/31 04:26:34;;;;;;;15.90;2.88;;;12.00;99.90;;;;;;5113827;27;20035;-90
2021/12/31 04:29:00;;;;;;;15.57;2.47;;;12.00;99.90;;;;;;5084626;27;20043;-88
2021/12/31 04:31:26;;;;;;;18.85;2.80;;;12.00;99.90;;;;;;5100935;27;20035;-91
2021/12/31 04:33:51;;;;;;;13.95;3.38;;;12.30;99.90;;;;;;5103522;27;20055;-90
2021/12/31 04:36:17;;;;;;;13.82;3.65;;;12.10;99.90;;;;;;5086592;27;20073;-89
2021/12/31 04:38:43;;;;;;;13.23;3.20;;;12.00;99.90;;;;;;5081395;27;20047;-91
2021/12/31 04:41:09;;;;;;;10.82;2.88;;;12.10;99.90;;;;;;5102709;27;20270;-88
2021/12/31 04:43:34;;;;;;;12.65;2.78;;;12.10;99.90;;;;;;5090410;27;20051;-88
2021/12/31 04:46:00;;;;;;;12.05;2.90;;;12.20;99.90;;;;;;5109291;27;20051;-94
2021/12/31 04:48:27;;;;;;;12.57;2.80;;;12.20;99.90;;;;;;5101843;27;20441;-90
2021/12/31 04:50:52;;;;;;;13.88;2.72;;;12.20;99.90;;;;;;5088076;27;20039;-85
2021/12/31 04:53:18;;;;;;;11.80;2.70;;;12.70;99.90;;;;;;5104997;27;20165;-93
2021/12/31 04:55:44;;;;;;;9.88;2.33;;;13.10;99.90;;;;;;5090870;27;20099;-90
2021/12/31 04:58:10;;;;;;;14.15;3.25;;;13.00;99.90;;;;;;5081851;27;20047;-89
2021/12/31 05:00:42;;;;;;;14.13;2.40;;;12.40;99.90;;;;;;5078945;27;20038;-94
2021/12/31 05:03:11;;;;;;;11.70;2.85;;;12.40;99.90;;;;;;5097959;27;20059;-89
2021/12/31 05:05:40;;;;;;;9.50;2.33;;;12.50;99.90;;;;;;5090893;27;20042;-87
2021/12/31 05:08:06;;;;;;;10.88;2.72;;;12.40;99.90;;;;;;5094318;28;20122;-89
2021/12/31 05:10:32;;;;;;;12.68;3.03;;;12.90;99.90;;;;;;5090493;28;20464;-89
2021/12/31 05:13:00;;;;;;;8.90;2.05;;;12.40;99.90;;;;;;5105361;27;20411;-91
2021/12/31 05:15:28;;;;;;;11.18;2.55;;;12.40;99.90;;;;;;5089624;27;20039;-88
2021/12/31 05:17:56;;;;;;;9.95;2.15;;;12.30;99.90;;;;;;5088252;27;20042;-88
2021/12/31 05:20:23;;;;;;;7.32;2.28;;;12.60;99.90;;;;;;5103982;27;20039;-88
2021/12/31 05:22:49;;;;;;;7.88;2.05;;;12.20;99.90;;;;;;5103734;27;20091;-91
2021/12/31 05:25:16;;;;;;;9.30;2.45;;;12.40;99.90;;;;;;5086810;27;20115;-88
2021/12/31 05:27:43;;;;;;;8.68;2.17;;;12.40;99.90;;;;;;5116832;27;20054;-90
2021/12/31 05:30:09;;;;;;;7.53;2.10;;;12.20;99.90;;;;;;5093027;27;20040;-89
2021/12/31 05:32:35;;;;;;;6.60;1.90;;;12.20;99.90;;;;;;5113347;27;20041;-89
2021/12/31 05:35:00;;;;;;;9.57;2.20;;;12.10;99.90;;;;;;5122935;27;20039;-91
2021/12/31 05:37:26;;;;;;;9.57;2.17;;;12.10;99.90;;;;;;5095875;27;20047;-88
2021/12/31 05:39:52;;;;;;;8.20;2.17;;;12.10;99.90;;;;;;5111616;27;20039;-91
2021/12/31 05:42:17;;;;;;;8.85;1.88;;;12.30;99.90;;;;;;5113991;27;20068;-89
2021/12/31 05:44:45;;;;;;;9.23;2.17;;;12.60;99.90;;;;;;5096986;27;20500;-90
2021/12/31 05:47:11;;;;;;;10.40;2.40;;;12.00;99.90;;;;;;5101533;27;20043;-88
2021/12/31 05:49:37;;;;;;;11.30;2.05;;;12.10;99.90;;;;;;5099220;27;20511;-89
2021/12/31 05:52:04;;;;;;;9.10;2.63;;;12.10;99.90;;;;;;5100121;27;20118;-89
2021/12/31 05:54:29;;;;;;;10.40;2.40;;;12.00;99.90;;;;;;5099983;27;20157;-92
2021/12/31 05:56:55;;;;;;;8.82;2.50;;;12.10;99.90;;;;;;5101070;27;20043;-90
2021/12/31 05:59:21;;;;;;;8.98;2.17;;;12.30;99.90;;;;;;5101164;27;20062;-91
2021/12/31 06:01:47;;;;;;;8.48;2.45;;;12.60;99.90;;;;;;5094636;27;20157;-86
2021/12/31 06:04:17;;;;;;;10.13;2.30;;;12.10;99.90;;;;;;5112864;27;20406;-91
2021/12/31 06:06:43;;;;;;;6.53;1.90;;;12.20;99.90;;;;;;5115228;27;20432;-87
2021/12/31 06:09:11;;;;;;;10.88;2.20;;;12.70;99.90;;;;;;5117489;27;20039;-91
2021/12/31 06:11:37;;;;;;;7.07;2.15;;;12.20;99.90;;;;;;5115797;27;20039;-86
2021/12/31 06:14:05;;;;;;;9.55;2.40;;;12.30;99.90;;;;;;5096153;27;20039;-91
2021/12/31 06:16:38;;;;;;;8.02;2.40;;;12.20;99.90;;;;;;5099294;27;20039;-91
2021/12/31 06:19:05;;;;;;;10.02;2.00;;;12.20;99.90;;;;;;5103121;27;20043;-91
2021/12/31 06:21:33;;;;;;;4.93;1.98;;;12.20;99.90;;;;;;5098750;27;20031;-93
2021/12/31 06:24:00;;;;;;;8.18;2.00;;;12.20;99.90;;;;;;5109701;27;20046;-90
2021/12/31 06:26:30;;;;;;;9.73;2.00;;;12.20;99.90;;;;;;5098435;27;20092;-90
2021/12/31 06:28:55;;;;;;;7.43;2.08;;;12.20;99.90;;;;;;5112194;27;20043;-92
2021/12/31 06:31:22;;;;;;;7.00;2.40;;;12.40;99.90;;;;;;5105230;27;20380;-92
2021/12/31 06:33:48;;;;;;;6.43;2.15;;;12.20;99.90;;;;;;5114672;27;20495;-90
2021/12/31 06:36:14;;;;;;;8.98;1.92;;;12.20;99.90;;;;;;5097212;27;20049;-86
2021/12/31 06:38:41;;;;;;;5.97;1.90;;;12.10;99.90;;;;;;5105307;27;20054;-89
2021/12/31 06:41:06;;;;;;;10.10;2.13;;;12.50;99.90;;;;;;5097209;27;20110;-88
2021/12/31 06:43:32;;;;;;;10.13;1.92;;;12.10;99.90;;;;;;5098295;27;20074;-90
2021/12/31 06:45:58;;;;;;;12.60;2.25;;;12.20;99.90;;;;;;5097869;27;20050;-89
2021/12/31 06:48:23;;;;;;;8.52;2.90;;;12.40;99.90;;;;;;5094089;27;20552;-95
2021/12/31 06:50:50;;;;;;;6.43;2.00;;;12.40;99.90;;;;;;5098224;27;20888;-88
2021/12/31 06:53:16;;;;;;;9.90;2.42;;;12.10;99.90;;;;;;5096589;27;20054;-89
2021/12/31 06:55:42;;;;;;;8.85;1.98;;;12.10;99.90;;;;;;5103757;27;20034;-90
2021/12/31 06:58:07;;;;;;;8.40;2.20;;;12.10;99.90;;;;;;5093741;27;20028;-90
2021/12/31 07:00:35;;;;;;;9.55;2.60;;;12.10;99.90;;;;;;5085095;27;20027;-93
2021/12/31 07:03:05;;;;;;;7.47;2.13;;;12.10;99.90;;;;;;5098868;27;20042;-94
2021/12/31 07:05:31;;;;;;;6.13;1.98;;;12.10;99.90;;;;;;5092044;27;20042;-91
2021/12/31 07:07:57;;;;;;;8.00;2.17;;;12.10;99.90;;;;;;5109640;27;20660;-88
2021/12/31 07:10:22;;;;;;;6.72;2.05;;;12.00;99.90;;;;;;5095900;27;20518;-88
2021/12/31 07:12:48;;;;;;;10.18;2.20;;;12.00;99.90;;;;;;5108193;28;20442;-88
2021/12/31 07:15:14;;;;;;;9.02;2.15;;;12.60;99.90;;;;;;5092013;27;20047;-89
2021/12/31 07:17:39;;;;;;;7.03;2.38;;;12.40;99.90;;;;;;5099512;27;20034;-89
2021/12/31 07:20:06;;;;;;;9.27;1.95;;;12.00;99.90;;;;;;5095147;27;20038;-90
2021/12/31 07:22:35;;;;;;;9.98;2.15;;;12.00;99.90;;;;;;5116096;27;20441;-91
2021/12/31 07:25:01;;;;;;;9.68;2.25;;;12.00;99.90;;;;;;5114087;27;20070;-89
2021/12/31 07:27:28;;;;;;;6.45;2.20;;;11.90;99.90;;;;;;5091922;27;20074;-88
2021/12/31 07:30:04;;;;;;;12.15;1.95;;;11.90;99.90;;;;;;5128065;27;20483;-94
2021/12/31 07:32:35;;;;;;;6.35;2.30;;;11.90;99.90;;;;;;5118788;27;20047;-88
2021/12/31 07:35:01;;;;;;;10.52;2.28;;;11.90;99.90;;;;;;5111347;27;20074;-89
2021/12/31 07:37:26;;;;;;;9.13;2.30;;;11.90;99.90;;;;;;5099828;27;20046;-88
2021/12/31 07:39:59;;;;;;;8.07;1.98;;;11.80;99.90;;;;;;5114298;27;20027;-90
2021/12/31 07:42:25;;;;;;;8.45;2.15;;;12.30;99.90;;;;;;5088527;27;20074;-88
2021/12/31 07:44:51;;;;;;;7.90;2.25;;;11.80;99.90;;;;;;5087424;27;20078;-89
2021/12/31 07:47:16;;;;;;;5.82;1.90;;;11.80;99.90;;;;;;5099399;27;20137;-90
2021/12/31 07:49:42;;;;;;;9.02;2.22;;;12.10;99.90;;;;;;5113069;27;20035;-88
2021/12/31 07:52:08;;;;;;;8.00;2.05;;;11.80;99.90;;;;;;5118219;27;20243;-88
2021/12/31 07:54:34;;;;;;;10.25;3.08;;;11.80;99.90;;;;;;5092020;27;20054;-90
2021/12/31 07:56:59;;;;;;;9.35;2.05;;;11.90;99.90;;;;;;5093205;27;20419;-86
2021/12/31 07:59:25;;;;;;;7.25;2.10;;;11.80;99.90;;;;;;5094076;27;20066;-88
2021/12/31 08:01:51;;;;;;;7.22;1.65;;;11.90;99.90;;;;;;5093364;27;20042;-89
2021/12/31 08:04:16;;;;;;;6.15;2.08;;;11.80;99.90;;;;;;5094329;27;20058;-86
2021/12/31 08:06:42;;;;;;;7.90;2.03;;;11.80;99.90;;;;;;5089881;27;20057;-88
2021/12/31 08:09:08;;;;;;;5.07;2.22;;;11.90;99.90;;;;;;5120188;27;20042;-87
2021/12/31 08:11:33;;;;;;;8.95;1.83;;;11.90;99.90;;;;;;5092730;27;20070;-89
2021/12/31 08:14:00;;;;;;;7.93;1.90;;;11.90;99.90;;;;;;5112183;27;20062;-87
2021/12/31 08:16:26;;;;;;;10.20;2.50;;;11.90;99.90;;;;;;5103454;27;20120;-88
2021/12/31 08:18:51;;;;;;;8.48;2.28;;;12.30;99.90;;;;;;5099235;27;20070;-89
2021/12/31 08:21:17;;;;;;;9.60;1.90;;;12.00;99.90;;;;;;5096059;27;20047;-87
2021/12/31 08:23:43;;;;;;;6.63;2.30;;;12.30;99.90;;;;;;5099162;27;20096;-91
2021/12/31 08:26:09;;;;;;;7.28;2.15;;;12.00;99.90;;;;;;5118492;27;20145;-89
2021/12/31 08:28:34;;;;;;;7.63;2.42;;;12.00;99.90;;;;;;5093777;27;20035;-90
2021/12/31 08:31:00;;;;;;;9.10;2.38;;;12.00;99.90;;;;;;5091563;27;20085;-87
2021/12/31 08:33:26;;;;;;;7.05;1.85;;;12.20;99.90;;;;;;5094242;27;20046;-92
2021/12/31 08:35:52;;;;;;;9.27;2.33;;;12.30;99.90;;;;;;5111418;27;20400;-88
2021/12/31 08:38:18;;;;;;;7.70;2.30;;;12.00;99.90;;;;;;5084953;27;20517;-88
2021/12/31 08:40:44;;;;;;;9.65;2.22;;;12.60;99.90;;;;;;5097996;28;20043;-91
2021/12/31 08:43:10;;;;;;;8.23;2.22;;;12.10;99.90;;;;;;5091259;27;20053;-90
2021/12/31 08:45:36;;;;;;;8.63;2.45;;;12.40;99.90;;;;;;5091650;28;20092;-89
2021/12/31 08:48:03;;;;;;;8.02;2.42;;;12.30;99.90;;;;;;5086346;27;20082;-90
2021/12/31 08:50:29;;;;;;;8.10;2.38;;;12.10;99.90;;;;;;5090025;27;20046;-87
2021/12/31 08:52:55;;;;;;;6.88;2.00;;;12.60;99.90;;;;;;5094765;27;20065;-86
2021/12/31 08:55:21;;;;;;;7.10;2.05;;;12.70;99.90;;;;;;5112731;27;20057;-88
2021/12/31 08:57:47;;;;;;;8.00;2.13;;;12.00;99.90;;;;;;5122830;27;20039;-88
2021/12/31 09:00:13;;;;;;;7.80;2.40;;;12.10;99.90;;;;;;5099258;27;20105;-94
2021/12/31 09:02:39;;;;;;;8.43;2.00;;;12.00;99.90;;;;;;5090095;27;20036;-88
2021/12/31 09:05:06;;;;;;;7.90;2.47;;;12.00;99.90;;;;;;5096866;27;20039;-87
2021/12/31 09:07:32;;;;;;;9.80;2.50;;;12.00;99.90;;;;;;5098975;27;20055;-87
2021/12/31 09:09:58;;;;;;;5.93;2.55;;;12.00;99.90;;;;;;5097232;27;20038;-89
2021/12/31 09:12:24;;;;;;;7.25;2.30;;;12.00;99.90;;;;;;5096168;27;20051;-89
2021/12/31 09:14:50;;;;;;;9.98;2.47;;;12.00;99.90;;;;;;5110426;27;20061;-86
2021/12/31 09:17:16;;;;;;;9.15;2.58;;;12.00;99.90;;;;;;5090335;27;20529;-87
2021/12/31 09:19:42;;;;;;;8.68;2.40;;;12.20;99.90;;;;;;5091253;27;20419;-89
2021/12/31 09:22:09;;;;;;;9.65;3.05;;;12.10;99.90;;;;;;5119958;27;20035;-88
2021/12/31 09:24:35;;;;;;;8.27;2.20;;;12.00;99.90;;;;;;5108492;27;20937;-90
2021/12/31 09:27:02;;;;;;;8.40;2.45;;;12.40;99.90;;;;;;5089001;27;20866;-87
2021/12/31 09:29:27;;;;;;;9.10;2.35;;;12.00;99.90;;;;;;5087095;27;20075;-87
2021/12/31 09:31:53;;;;;;;6.28;2.10;;;12.50;99.90;;;;;;5111883;27;20093;-88
2021/12/31 09:34:20;;;;;;;11.50;2.70;;;12.80;99.90;;;;;;5113878;27;20129;-87
2021/12/31 09:36:45;;;;;;;6.30;2.20;;;12.10;99.90;;;;;;5092236;27;20054;-87
2021/12/31 09:39:11;;;;;;;7.40;2.50;;;12.20;99.90;;;;;;5091115;27;20047;-90
2021/12/31 09:41:37;;;;;;;12.00;3.08;;;12.60;99.90;;;;;;5102672;27;20122;-87
2021/12/31 09:44:03;;;;;;;6.63;2.45;;;12.30;99.90;;;;;;5138096;27;20134;-87
2021/12/31 09:46:29;;;;;;;10.25;2.72;;;12.00;99.90;;;;;;5087469;27;20047;-87
2021/12/31 09:49:05;;;;;;;7.15;2.80;;;12.00;99.90;;;;;;5107016;27;20042;-88
2021/12/31 09:51:33;;;;;;;11.63;2.90;;;12.20;99.90;;;;;;5093192;27;20058;-85
2021/12/31 09:53:59;;;;;;;12.93;2.80;;;12.00;99.90;;;;;;5097452;27;20058;-88
2021/12/31 09:56:26;;;;;;;10.10;2.70;;;11.90;99.90;;;;;;5099369;27;20042;-86
2021/12/31 09:58:52;;;;;;;9.40;3.03;;;11.90;99.90;;;;;;5108764;27;20039;-85
2021/12/31 10:01:18;;;;;;;10.70;3.55;;;11.80;99.90;;;;;;5123355;27;20534;-85
2021/12/31 10:03:55;;;;;;;12.68;4.05;;;11.70;99.90;;;;;;5101759;27;20119;-89
2021/12/31 10:06:21;;;;;;;13.38;4.95;;;11.70;99.90;;;;;;5078601;27;20047;-89
2021/12/31 10:08:48;;;;;;;15.50;5.40;;;11.70;99.90;;;;;;5116338;27;20039;-89
2021/12/31 10:11:21;;;;;;;12.93;4.85;;;11.60;99.90;;;;;;5094796;27;20054;-93
2021/12/31 10:14:02;;;;;;;19.08;5.78;;;11.60;99.90;;;;;;5087578;27;20096;-90
2021/12/31 10:16:35;;;;;;;14.38;5.35;;;11.50;99.90;;;;;;5081262;28;20047;-88
2021/12/31 10:19:13;;;;;;;12.38;4.10;;;11.50;99.90;;;;;;5127913;27;20579;-92
2021/12/31 10:21:46;;;;;;;11.27;4.28;;;11.50;99.90;;;;;;5125147;27;20046;-93
2021/12/31 10:24:34;;;;;;;15.45;4.38;;;11.50;99.90;;;;;;5087016;27;20396;-91
2021/12/31 10:27:12;;;;;;;13.10;5.22;;;11.50;99.90;;;;;;5091860;27;20075;-88
2021/12/31 10:30:03;;;;;;;13.82;5.30;;;11.40;99.90;;;;;;5096710;27;20461;-88
2021/12/31 10:32:35;;;;;;;15.33;5.23;;;11.50;99.90;;;;;;5133962;27;20073;-91
2021/12/31 10:35:13;;;;;;;10.80;4.40;;;11.40;99.90;;;;;;5100259;27;20301;-89
2021/12/31 10:37:44;;;;;;;14.68;4.30;;;11.40;99.90;;;;;;5098458;27;20115;-90
2021/12/31 10:40:24;;;;;;;11.70;3.20;;;11.40;99.90;;;;;;5097776;27;20042;-89
2021/12/31 10:43:04;;;;;;;11.55;3.67;;;11.40;99.90;;;;;;5117241;27;20023;-90
2021/12/31 10:45:30;;;;;;;10.80;3.35;;;11.40;99.90;;;;;;5103765;27;20035;-89
2021/12/31 10:48:07;;;;;;;10.40;3.30;;;11.40;99.90;;;;;;5111397;27;20145;-91
2021/12/31 10:50:35;;;;;;;13.02;3.50;;;11.40;99.90;;;;;;5098940;27;20043;-89
2021/12/31 10:53:09;;;;;;;14.32;3.58;;;11.40;99.90;;;;;;5119277;27;20402;-90
2021/12/31 10:55:39;;;;;;;8.95;3.22;;;11.40;99.90;;;;;;5102364;27;20171;-92
2021/12/31 10:58:09;;;;;;;13.73;3.30;;;11.50;99.90;;;;;;5103638;27;20563;-91
2021/12/31 11:00:40;;;;;;;10.13;3.22;;;11.40;99.90;;;;;;5120609;27;20038;-95
2021/12/31 11:03:07;;;;;;;11.30;3.92;;;11.70;99.90;;;;;;5099304;27;20057;-89
2021/12/31 11:05:34;;;;;;;13.90;4.28;;;11.80;99.90;;;;;;5112404;27;20228;-94
2021/12/31 11:08:02;;;;;;;12.10;3.85;;;11.40;99.90;;;;;;5092076;27;20043;-95
2021/12/31 11:10:35;;;;;;;12.65;3.88;;;12.00;99.90;;;;;;5117240;27;20045;-92
2021/12/31 11:13:22;;;;;;;15.60;3.53;;;11.40;99.90;;;;;;5113763;27;20108;-94
2021/12/31 11:15:50;;;;;;;14.57;4.57;;;11.30;99.90;;;;;;5100560;27;20111;-93
2021/12/31 11:18:23;;;;;;;18.77;4.85;;;11.30;99.90;;;;;;5103766;27;20051;-93
2021/12/31 11:21:14;;;;;;;14.07;4.65;;;11.30;99.90;;;;;;5116134;27;20062;-96
2021/12/31 11:23:45;;;;;;;12.82;4.93;;;11.30;99.90;;;;;;5098349;27;20472;-92
2021/12/31 11:26:26;;;;;;;13.55;5.03;;;11.30;99.90;;;;;;5116983;27;20122;-95
2021/12/31 11:29:15;;;;;;;16.42;4.57;;;11.30;99.90;;;;;;5098685;27;20044;-92
2021/12/31 11:31:52;;;;;;;11.27;4.68;;;11.30;99.90;;;;;;5114387;27;20118;-95
2021/12/31 11:34:17;;;;;;;10.75;3.90;;;11.60;99.90;;;;;;5099486;27;20042;-96
2021/12/31 11:37:05;;;;;;;13.25;4.47;;;11.70;99.90;;;;;;5096390;27;20035;-94
2021/12/31 11:39:37;;;;;;;11.80;4.70;;;11.20;99.90;;;;;;5117306;27;20567;-96
2021/12/31 11:42:27;;;;;;;11.00;3.65;;;11.20;99.90;;;;;;5101679;27;20092;-96
2021/12/31 11:45:12;;;;;;;13.77;4.13;;;11.20;99.90;;;;;;5086221;27;20122;-91
2021/12/31 11:47:39;;;;;;;16.05;4.75;;;11.20;99.90;;;;;;5099255;27;20039;-91
2021/12/31 11:50:25;;;;;;;14.88;4.28;;;11.60;99.90;;;;;;5097928;27;20032;-93
2021/12/31 11:53:02;;;;;;;17.30;4.47;;;11.20;99.90;;;;;;5091401;27;20401;-90
2021/12/31 11:55:42;;;;;;;12.10;4.05;;;11.10;99.90;;;;;;5086022;27;20039;-90
2021/12/31 11:58:37;;;;;;;13.93;4.32;;;11.40;99.90;;;;;;5096951;27;20050;-89
2021/12/31 12:01:36;;;;;;;13.60;3.90;;;11.10;99.90;;;;;;5109363;27;20055;-90
2021/12/31 12:04:18;;;;;;;11.48;4.15;;;11.10;99.90;;;;;;5114572;27;20063;-86
2021/12/31 12:07:03;;;;;;;11.40;4.38;;;11.20;99.90;;;;;;5111877;27;20162;-89
2021/12/31 12:09:39;;;;;;;15.65;4.70;;;11.10;99.90;;;;;;5082681;27;20445;-89
2021/12/31 12:12:35;;;;;;;11.93;4.22;;;11.10;99.90;;;;;;5121507;27;20055;-86
2021/12/31 12:15:14;;;;;;;13.00;4.10;;;11.10;99.90;;;;;;5094251;27;20385;-86
2021/12/31 12:17:43;;;;;;;17.58;4.60;;;11.10;99.90;;;;;;5095569;28;20047;-88
2021/12/31 12:20:18;;;;;;;11.40;4.40;;;11.10;99.90;;;;;;5107772;27;20039;-89
2021/12/31 12:22:52;;;;;;;12.00;4.40;;;11.10;99.90;;;;;;5119100;27;20035;-87
2021/12/31 12:25:25;;;;;;;11.23;4.78;;;11.10;99.90;;;;;;5093066;28;20089;-86
2021/12/31 12:27:54;;;;;;;14.63;5.00;;;11.20;99.90;;;;;;5106127;28;20040;-86
2021/12/31 12:30:21;;;;;;;12.27;4.18;;;11.10;99.90;;;;;;5125762;27;20370;-89
2021/12/31 12:35:22;;;;;;;9.52;3.90;;;11.10;99.90;;;;;;5111106;27;20051;-87
2021/12/31 12:38:04;;;;;;;9.48;3.88;;;11.10;99.90;;;;;;5089293;28;20526;-88
2021/12/31 12:40:45;;;;;;;8.27;4.15;;;11.10;99.90;;;;;;5090448;27;20043;-89
2021/12/31 12:43:23;;;;;;;9.40;3.60;;;11.10;99.90;;;;;;5092654;27;20119;-88
2021/12/31 12:45:58;;;;;;;7.53;4.10;;;11.10;99.90;;;;;;5086426;28;20470;-85
2021/12/31 12:48:39;;;;;;;10.10;4.18;;;11.10;99.90;;;;;;5110895;28;20051;-86
2021/12/31 12:51:07;;;;;;;11.15;4.38;;;11.10;99.90;;;;;;5112179;28;20138;-88
2021/12/31 12:53:39;;;;;;;10.45;4.13;;;11.10;99.90;;;;;;5110144;28;20110;-88